Latest Coastal Weather Observations for Cocos Island

IDW60701

Issued at 4:45 pm WST Tuesday 21 October 2014 (issued every 10 minutes, with the page automatically refreshed every 10 minutes)

About coastal observations | Map of coastal stations | Coastal observations for WA | Marine services | Other Formats
Station Details ID: 200284 Name: COCOS ISLAND AIRPORT Lat: -12.19 Lon: 96.83 Height: 3.0 m
Data from the previous 72 hours. | See also: Recent months at Cocos Island
Date/Time
WST
Temp

°C
Wind Pressure Rain
since 9am
mm
Weather Cloud Vis
km
Sea
Height
m
Swell
Dir
 
Speed
knots
Gust
knots
hPa Trend Height
m
Period
s
Dir
21/04:30pm 27.7 E 15 21 1013.1 - 0.0 - Partly cloudy 10 - - - -
21/04:00pm 28.0 E 17 21 1013.4 - 0.0 - Partly cloudy 10 - - - -
21/03:30pm 27.7 E 16 21 1013.5 - 0.0 - Partly cloudy 10 - - - -
21/03:00pm 27.6 E 17 23 1013.5 - 0.0 - Mostly cloudy 10 - - - -
21/02:30pm 28.6 E 17 21 1013.8 - 0.0 - Partly cloudy 10 - - - -
21/02:00pm 28.3 E 15 22 1014.2 - 0.0 Haze Partly cloudy 15 - - - -
21/01:30pm 28.6 E 15 20 1014.6 - 0.0 - Partly cloudy 10 - - - -
21/01:00pm 28.0 E 18 22 1014.7 - 0.0 - Partly cloudy 10 - - - -
21/12:30pm 28.5 E 16 21 1015.0 - 0.0 - Partly cloudy 10 - - - -
21/12:00pm 28.3 ESE 16 23 1015.2 - 0.0 - Partly cloudy 10 - - - -
21/11:30am 28.1 E 14 20 1015.1 - 0.0 - Mostly clear 10 - - - -
21/11:00am 27.8 ESE 15 22 1015.2 - 0.0 Haze Partly cloudy 16 - - - -
21/10:30am 27.9 ESE 16 21 1015.5 - 0.0 - Mostly clear 10 - - - -
21/10:00am 27.3 E 16 21 1015.2 - 0.0 - Partly cloudy 10 - - - -
21/09:30am 26.7 E 15 21 1015.0 - 0.0 - Mostly clear 10 - - - -
21/09:00am 26.5 E 13 18 1014.6 - 0.0 Showers Partly cloudy 10 - - - -
21/08:30am 26.4 ESE 15 20 1014.3 - 0.0 - Partly cloudy 10 - - - -
21/08:00am 26.2 E 15 20 1013.8 - 0.0 Haze Partly cloudy 15 - - - -
21/07:30am 26.1 E 13 19 1013.6 - 0.0 - Partly cloudy 10 - - - -
21/07:00am 26.0 E 14 19 1013.5 - 0.0 - Partly cloudy 10 - - - -
21/06:30am 26.0 E 15 20 1013.2 - 0.0 - Partly cloudy 10 - - - -
21/06:00am 26.0 E 12 17 1013.2 - 0.0 - - 10 - - - -
21/05:30am 26.0 E 15 20 1012.9 - 0.0 - - 10 - - - -
21/05:00am 26.0 E 13 17 1013.2 - 0.0 - Mostly clear 10 - - - -
21/04:30am 26.0 E 15 18 1013.1 - 0.0 - Partly cloudy 10 - - - -
21/04:00am 26.1 E 14 19 1013.2 - 0.0 - Partly cloudy 10 - - - -
21/03:30am 26.1 E 15 21 1013.5 - 0.0 - - 10 - - - -
21/03:00am 26.1 E 13 19 1013.9 - 0.0 - - 10 - - - -
21/02:30am 26.1 E 12 16 1014.6 - 0.0 - Partly cloudy 10 - - - -
21/02:00am 26.2 E 13 16 1014.8 - 0.0 - Mostly clear 10 - - - -
21/01:30am 26.3 E 13 17 1015.0 - 0.0 - Partly cloudy 10 - - - -
21/01:00am 26.3 E 13 17 1015.1 - 0.0 - Partly cloudy 10 - - - -
21/12:30am 26.3 E 13 18 1015.5 - 0.0 - Partly cloudy 10 - - - -
21/12:00am 26.3 E 13 18 1015.6 - 0.0 - Partly cloudy 10 - - - -
 
Date/Time
WST
Temp

°C
Wind Pressure Rain
since 9am
mm
Weather Cloud Vis
km
Sea
Height
m
Swell
Dir
 
Speed
knots
Gust
knots
hPa Trend Height
m
Period
s
Dir
20/11:30pm 26.5 E 14 18 1015.5 - 0.0 - Partly cloudy 10 - - - -
20/11:00pm 26.6 E 14 19 1015.7 - 0.0 - Mostly clear 10 - - - -
20/10:30pm 26.7 E 16 20 1015.3 - 0.0 - - 10 - - - -
20/10:00pm 26.8 E 16 19 1015.0 - 0.0 - Partly cloudy 10 - - - -
20/09:30pm 26.9 E 15 19 1014.7 - 0.0 - Partly cloudy 10 - - - -
20/09:00pm 26.9 E 14 18 1014.5 - 0.0 - Partly cloudy 10 - - - -
20/08:30pm 26.9 E 14 18 1014.1 - 0.0 - Partly cloudy 10 - - - -
20/08:00pm 26.8 E 13 18 1014.1 - 0.0 - - 10 - - - -
20/07:30pm 26.8 E 13 17 1013.9 - 0.0 - Partly cloudy 10 - - - -
20/07:00pm 27.0 E 13 17 1013.5 - 0.0 - - 10 - - - -
20/06:30pm 27.3 E 13 17 1013.0 - 0.0 - - 10 - - - -
20/06:00pm 27.4 E 16 20 1012.7 - 0.0 - Mostly clear 10 - - - -
20/05:30pm 27.6 E 15 19 1012.8 - 0.0 - Partly cloudy 10 - - - -
20/05:00pm 27.7 E 15 19 1012.6 - 0.0 Haze Partly cloudy 12 - - - -
20/04:30pm 27.5 E 16 19 1012.5 - 0.0 - Mostly clear 10 - - - -
20/04:00pm 27.6 E 15 18 1012.5 - 0.0 - Mostly clear 10 - - - -
20/03:30pm 28.0 E 17 19 1012.6 - 0.0 - Mostly clear 10 - - - -
20/03:00pm 27.4 E 16 19 1012.6 - 0.0 - Mostly clear 10 - - - -
20/02:30pm 27.9 E 17 19 1012.6 - 0.0 - Mostly clear 10 - - - -
20/02:00pm 27.6 E 17 20 1013.0 - 0.0 Haze Partly cloudy 12 - - - -
20/01:30pm 28.2 E 17 20 1013.3 - 0.0 - Mostly clear 10 - - - -
20/01:00pm 27.7 E 16 19 1013.5 - 0.0 - Mostly clear 10 - - - -
20/12:30pm 28.2 E 16 19 1013.7 - 0.0 - Mostly clear 10 - - - -
20/12:00pm 28.1 E 14 18 1013.9 - 0.0 - Partly cloudy 10 - - - -
20/11:30am 27.8 E 15 18 1014.0 - 0.0 - Mostly clear 10 - - - -
20/11:00am 27.3 E 16 20 1014.1 - 0.6 Haze Mostly clear 12 - - - -
20/10:30am 27.2 E 16 19 1014.3 - 0.4 - Mostly clear 10 - - - -
20/10:00am 26.7 E 18 20 1014.2 - 0.4 - Partly cloudy 10 - - - -
20/09:30am 26.8 E 16 21 1014.1 - 0.4 - Partly cloudy 10 - - - -
20/09:00am 26.4 E 15 18 1013.8 - 0.4 - Mostly clear 10 - - - -
20/08:30am 26.2 E 14 17 1013.4 - 0.4 - Mostly clear 10 - - - -
20/08:00am 26.1 E 13 18 1013.2 - 0.4 Fine Mostly cloudy 15 - - - -
20/07:30am 25.7 E 12 17 1012.8 - 0.4 - Mostly clear 10 - - - -
20/07:00am 25.8 E 15 20 1012.4 - 0.4 - Mostly clear 10 - - - -
20/06:30am 25.7 E 15 19 1012.0 - 0.4 - - 10 - - - -
20/06:00am 25.7 E 15 20 1011.8 - 0.4 - - 10 - - - -
20/05:30am 25.7 E 14 18 1011.8 - 0.4 - Partly cloudy 10 - - - -
20/05:00am 25.7 E 14 17 1011.6 - 0.4 - Mostly clear 10 - - - -
20/04:30am 25.7 E 15 19 1011.7 - 0.4 - Partly cloudy 10 - - - -
20/04:00am 25.7 E 14 19 1011.8 - 0.4 - - 10 - - - -
20/03:30am 25.7 E 15 19 1012.1 - 0.4 - Partly cloudy 10 - - - -
20/03:00am 25.7 E 17 21 1012.3 - 0.4 - Partly cloudy 10 - - - -
20/02:52am 25.7 E 18 20 1012.2 - 0.4 - Partly cloudy 10 - - - -
20/02:32am 25.2 E 18 23 1012.6 - 0.0 - Partly cloudy 7 - - - -
20/02:30am 25.6 E 17 21 1012.5 - 0.0 - Partly cloudy 10 - - - -
20/02:00am 26.0 E 16 22 1012.9 - 0.0 - Mostly cloudy 10 - - - -
20/01:30am 26.0 E 14 19 1013.1 - 0.0 - Partly cloudy 10 - - - -
20/01:00am 25.8 E 17 21 1013.7 - 0.0 - Partly cloudy 10 - - - -
20/12:30am 26.1 E 16 20 1013.9 - 0.0 - Partly cloudy 10 - - - -
20/12:00am 26.0 E 14 20 1014.2 - 0.0 - Partly cloudy 10 - - - -
 
Date/Time
WST
Temp

°C
Wind Pressure Rain
since 9am
mm
Weather Cloud Vis
km
Sea
Height
m
Swell
Dir
 
Speed
knots
Gust
knots
hPa Trend Height
m
Period
s
Dir
19/11:30pm 26.1 E 15 19 1014.2 - 0.0 - Partly cloudy 10 - - - -
19/11:00pm 26.3 E 15 20 1014.2 - 0.0 - Mostly clear 10 - - - -
19/10:30pm 26.2 E 16 19 1014.0 - 0.0 - Partly cloudy 10 - - - -
19/10:00pm 26.4 E 15 20 1013.8 - 0.0 - - 10 - - - -
19/09:30pm 26.3 E 14 19 1013.5 - 0.0 - Partly cloudy 10 - - - -
19/09:00pm 26.4 E 15 20 1013.2 - 0.0 - Partly cloudy 10 - - - -
19/08:30pm 26.4 E 15 19 1013.1 - 0.0 - Partly cloudy 10 - - - -
19/08:00pm 26.5 E 15 19 1012.7 - 0.0 - Mostly clear 10 - - - -
19/07:30pm 26.7 E 15 20 1012.4 - 0.0 - Partly cloudy 10 - - - -
19/07:00pm 26.8 E 17 21 1012.0 - 0.0 - Partly cloudy 10 - - - -
19/06:30pm 26.9 E 16 20 1011.7 - 0.0 - Partly cloudy 10 - - - -
19/06:00pm 27.2 E 17 21 1011.4 - 0.0 - Mostly clear 10 - - - -
19/05:30pm 27.3 E 16 20 1011.2 - 0.0 - Mostly clear 10 - - - -
19/05:00pm 27.3 E 16 22 1011.3 - 0.0 Fine Partly cloudy 15 - - - -
19/04:30pm 27.6 E 17 21 1011.2 - 0.0 - Mostly clear 10 - - - -
19/04:00pm 27.7 E 18 23 1011.2 - 0.0 - Mostly clear 10 - - - -
19/03:30pm 27.9 E 17 22 1011.4 - 0.0 - Mostly clear 10 - - - -
19/03:00pm 27.2 E 17 24 1011.7 - 0.0 - Partly cloudy 10 - - - -
19/02:30pm 27.9 E 17 23 1012.0 - 0.0 - Mostly clear 10 - - - -
19/02:00pm 27.3 E 17 21 1012.4 - 0.0 Fine Mostly clear 15 - - - -
19/01:30pm 28.1 E 15 21 1012.6 - 0.0 - Mostly clear 10 - - - -
19/01:00pm 27.9 E 18 24 1012.9 - 0.0 - Mostly clear 10 - - - -
19/12:30pm 27.8 E 19 24 1013.1 - 0.0 - Mostly clear 10 - - - -
19/12:00pm 27.6 E 19 25 1013.3 - 0.0 - Partly cloudy 10 - - - -
19/11:30am 27.8 ESE 17 24 1013.5 - 0.0 - Mostly clear 10 - - - -
19/11:00am 27.4 E 17 23 1013.7 - 0.0 Fine Mostly clear 15 - - - -
19/10:30am 27.3 E 17 23 1013.7 - 0.0 - Mostly clear 10 - - - -
19/10:00am 27.1 E 16 21 1013.9 - 0.0 - Mostly clear 10 - - - -
19/09:30am 26.8 E 15 19 1013.8 - 0.0 - Mostly clear 10 - - - -
19/09:00am 26.6 E 16 21 1013.6 - 0.0 - Mostly clear 10 - - - -
19/08:30am 26.2 E 14 19 1013.3 - 0.0 - Mostly clear 10 - - - -
19/08:00am 25.8 E 15 20 1013.0 - 0.0 Fine Partly cloudy 15 - - - -
19/07:30am 25.5 E 15 20 1012.8 - 0.0 - Mostly clear 10 - - - -
19/07:00am 25.4 E 13 21 1012.6 - 0.0 - Mostly clear 10 - - - -
19/06:30am 25.4 E 12 17 1012.4 - 0.0 - Partly cloudy 10 - - - -
19/06:00am 25.5 E 14 17 1012.2 - 0.0 - - 10 - - - -
19/05:30am 25.4 E 13 18 1011.8 - 0.0 - Partly cloudy 10 - - - -
19/05:00am 25.5 E 13 18 1011.8 - 0.0 - Mostly clear 10 - - - -
19/04:30am 25.5 E 13 17 1011.8 - 0.0 - - 10 - - - -
19/04:00am 25.5 E 14 19 1012.0 - 0.0 - - 10 - - - -
19/03:30am 25.5 E 12 18 1012.2 - 0.0 - - 10 - - - -
19/03:00am 25.7 ESE 14 18 1012.5 - 0.0 - Partly cloudy 10 - - - -
19/02:30am 25.8 E 14 19 1012.6 - 0.0 - Partly cloudy 10 - - - -
19/02:00am 25.8 E 15 19 1013.2 - 0.0 - Mostly clear 10 - - - -
19/01:30am 25.8 E 15 20 1013.4 - 0.0 - Partly cloudy 10 - - - -
19/01:00am 25.8 E 14 19 1013.8 - 0.0 - - 10 - - - -
19/12:30am 25.9 E 15 19 1013.9 - 0.0 - Partly cloudy 10 - - - -
19/12:00am 26.0 E 14 20 1014.0 - 0.0 - Partly cloudy 10 - - - -
 
Date/Time
WST
Temp

°C
Wind Pressure Rain
since 9am
mm
Weather Cloud Vis
km
Sea
Height
m
Swell
Dir
 
Speed
knots
Gust
knots
hPa Trend Height
m
Period
s
Dir
18/11:30pm 26.1 E 15 21 1013.9 - 0.0 - Cloudy 10 - - - -
18/11:00pm 26.1 E 16 22 1014.0 - 0.0 - Cloudy 10 - - - -
18/10:30pm 26.2 ESE 15 21 1013.9 - 0.0 - Cloudy 10 - - - -
18/10:00pm 26.1 E 15 21 1013.6 - 0.0 - Partly cloudy 10 - - - -
18/09:30pm 26.2 E 17 22 1013.5 - 0.0 - Cloudy 10 - - - -
18/09:00pm 26.2 ESE 17 22 1013.1 - 0.0 - Cloudy 10 - - - -
18/08:30pm 26.2 E 16 23 1013.0 - 0.0 - Partly cloudy 10 - - - -
18/08:00pm 26.2 ESE 17 23 1012.8 - 0.0 - Partly cloudy 10 - - - -
18/07:30pm 26.3 E 16 23 1012.5 - 0.0 - - 10 - - - -
18/07:00pm 26.5 ESE 14 21 1012.0 - 0.0 - Partly cloudy 10 - - - -
18/06:30pm 26.8 E 15 20 1011.9 - 0.0 - Partly cloudy 10 - - - -

Other Formats:

Comma delimited format used in spreadsheet applications
http://www.bom.gov.au/fwo/IDW60701/IDW60701.96996.axf

JavaScript Object Notation format (JSON) in row-major order
http://www.bom.gov.au/fwo/IDW60701/IDW60701.96996.json